sensor_id;sensor_type;location;lat;lon;timestamp;P1;durP1;ratioP1;P2;durP2;ratioP2
21591;SDS011;10958;50.892;3.992;2024-03-08T00:00:14;25.92;;;13.82;;
21591;SDS011;10958;50.892;3.992;2024-03-08T00:02:44;26.05;;;13.30;;
21591;SDS011;10958;50.892;3.992;2024-03-08T00:05:16;25.90;;;14.05;;
21591;SDS011;10958;50.892;3.992;2024-03-08T00:07:49;26.55;;;14.23;;
21591;SDS011;10958;50.892;3.992;2024-03-08T00:10:18;26.30;;;13.90;;
21591;SDS011;10958;50.892;3.992;2024-03-08T00:12:46;26.10;;;13.18;;
21591;SDS011;10958;50.892;3.992;2024-03-08T00:15:16;26.27;;;12.98;;
21591;SDS011;10958;50.892;3.992;2024-03-08T00:17:43;23.50;;;13.70;;
21591;SDS011;10958;50.892;3.992;2024-03-08T00:22:39;28.80;;;13.68;;
21591;SDS011;10958;50.892;3.992;2024-03-08T00:25:06;23.15;;;12.93;;
21591;SDS011;10958;50.892;3.992;2024-03-08T00:27:37;24.92;;;12.88;;
21591;SDS011;10958;50.892;3.992;2024-03-08T00:30:07;26.13;;;14.13;;
21591;SDS011;10958;50.892;3.992;2024-03-08T00:32:35;26.85;;;13.43;;
21591;SDS011;10958;50.892;3.992;2024-03-08T00:35:17;28.17;;;13.80;;
21591;SDS011;10958;50.892;3.992;2024-03-08T00:37:50;31.67;;;14.45;;
21591;SDS011;10958;50.892;3.992;2024-03-08T00:40:21;26.85;;;13.90;;
21591;SDS011;10958;50.892;3.992;2024-03-08T00:42:47;23.40;;;13.93;;
21591;SDS011;10958;50.892;3.992;2024-03-08T00:45:19;27.48;;;14.00;;
21591;SDS011;10958;50.892;3.992;2024-03-08T00:47:56;23.73;;;12.18;;
21591;SDS011;10958;50.892;3.992;2024-03-08T00:50:30;25.30;;;12.85;;
21591;SDS011;10958;50.892;3.992;2024-03-08T00:55:32;27.45;;;13.85;;
21591;SDS011;10958;50.892;3.992;2024-03-08T00:58:01;29.00;;;13.68;;
21591;SDS011;10958;50.892;3.992;2024-03-08T01:00:27;23.00;;;13.05;;
21591;SDS011;10958;50.892;3.992;2024-03-08T01:03:02;24.73;;;12.98;;
21591;SDS011;10958;50.892;3.992;2024-03-08T01:07:57;25.77;;;14.10;;
21591;SDS011;10958;50.892;3.992;2024-03-08T01:10:23;24.90;;;13.23;;
21591;SDS011;10958;50.892;3.992;2024-03-08T01:12:49;25.67;;;14.70;;
21591;SDS011;10958;50.892;3.992;2024-03-08T01:15:21;29.20;;;13.80;;
21591;SDS011;10958;50.892;3.992;2024-03-08T01:17:48;28.83;;;15.05;;
21591;SDS011;10958;50.892;3.992;2024-03-08T01:20:18;23.70;;;13.23;;
21591;SDS011;10958;50.892;3.992;2024-03-08T01:22:43;28.27;;;14.40;;
21591;SDS011;10958;50.892;3.992;2024-03-08T01:25:18;30.38;;;14.45;;
21591;SDS011;10958;50.892;3.992;2024-03-08T01:27:51;29.05;;;13.63;;
21591;SDS011;10958;50.892;3.992;2024-03-08T01:30:20;27.85;;;13.88;;
21591;SDS011;10958;50.892;3.992;2024-03-08T01:32:55;27.17;;;13.93;;
21591;SDS011;10958;50.892;3.992;2024-03-08T01:35:25;22.30;;;11.18;;
21591;SDS011;10958;50.892;3.992;2024-03-08T01:37:52;30.20;;;14.98;;
21591;SDS011;10958;50.892;3.992;2024-03-08T01:40:18;26.25;;;14.43;;
21591;SDS011;10958;50.892;3.992;2024-03-08T01:42:55;26.48;;;14.30;;
21591;SDS011;10958;50.892;3.992;2024-03-08T01:45:43;31.52;;;15.32;;
21591;SDS011;10958;50.892;3.992;2024-03-08T01:48:17;28.20;;;14.85;;
21591;SDS011;10958;50.892;3.992;2024-03-08T01:50:51;29.27;;;15.55;;
21591;SDS011;10958;50.892;3.992;2024-03-08T01:53:21;28.90;;;15.13;;
21591;SDS011;10958;50.892;3.992;2024-03-08T01:55:48;31.95;;;15.43;;
21591;SDS011;10958;50.892;3.992;2024-03-08T01:58:15;29.13;;;15.25;;
21591;SDS011;10958;50.892;3.992;2024-03-08T02:00:44;31.52;;;15.45;;
21591;SDS011;10958;50.892;3.992;2024-03-08T02:05:50;32.83;;;15.98;;
21591;SDS011;10958;50.892;3.992;2024-03-08T02:08:18;31.50;;;15.93;;
21591;SDS011;10958;50.892;3.992;2024-03-08T02:10:47;32.65;;;16.63;;
21591;SDS011;10958;50.892;3.992;2024-03-08T02:13:16;26.42;;;15.18;;
21591;SDS011;10958;50.892;3.992;2024-03-08T02:15:55;27.08;;;15.52;;
21591;SDS011;10958;50.892;3.992;2024-03-08T02:18:24;31.55;;;16.88;;
21591;SDS011;10958;50.892;3.992;2024-03-08T02:20:57;35.03;;;17.60;;
21591;SDS011;10958;50.892;3.992;2024-03-08T02:23:24;29.67;;;16.63;;
21591;SDS011;10958;50.892;3.992;2024-03-08T02:25:53;29.85;;;16.55;;
21591;SDS011;10958;50.892;3.992;2024-03-08T02:28:21;32.83;;;16.80;;
21591;SDS011;10958;50.892;3.992;2024-03-08T02:30:48;33.05;;;16.75;;
21591;SDS011;10958;50.892;3.992;2024-03-08T02:33:25;30.63;;;15.98;;
21591;SDS011;10958;50.892;3.992;2024-03-08T02:35:51;30.67;;;16.75;;
21591;SDS011;10958;50.892;3.992;2024-03-08T02:38:21;32.28;;;16.33;;
21591;SDS011;10958;50.892;3.992;2024-03-08T02:40:53;30.70;;;17.13;;
21591;SDS011;10958;50.892;3.992;2024-03-08T02:43:22;31.58;;;18.40;;
21591;SDS011;10958;50.892;3.992;2024-03-08T02:45:53;30.95;;;17.25;;
21591;SDS011;10958;50.892;3.992;2024-03-08T02:48:22;30.65;;;16.55;;
21591;SDS011;10958;50.892;3.992;2024-03-08T02:50:48;30.48;;;16.33;;
21591;SDS011;10958;50.892;3.992;2024-03-08T02:53:16;32.60;;;16.02;;
21591;SDS011;10958;50.892;3.992;2024-03-08T02:55:44;28.33;;;15.30;;
21591;SDS011;10958;50.892;3.992;2024-03-08T02:58:10;36.17;;;18.25;;
21591;SDS011;10958;50.892;3.992;2024-03-08T03:00:36;30.80;;;16.45;;
21591;SDS011;10958;50.892;3.992;2024-03-08T03:03:12;29.17;;;17.05;;
21591;SDS011;10958;50.892;3.992;2024-03-08T03:05:38;32.78;;;16.52;;
21591;SDS011;10958;50.892;3.992;2024-03-08T03:08:07;27.58;;;16.83;;
21591;SDS011;10958;50.892;3.992;2024-03-08T03:10:37;35.40;;;19.00;;
21591;SDS011;10958;50.892;3.992;2024-03-08T03:13:03;29.48;;;17.13;;
21591;SDS011;10958;50.892;3.992;2024-03-08T03:15:31;30.20;;;17.67;;
21591;SDS011;10958;50.892;3.992;2024-03-08T03:18:07;30.55;;;17.60;;
21591;SDS011;10958;50.892;3.992;2024-03-08T03:20:33;33.22;;;17.13;;
21591;SDS011;10958;50.892;3.992;2024-03-08T03:23:05;31.58;;;17.45;;
21591;SDS011;10958;50.892;3.992;2024-03-08T03:25:58;28.92;;;17.60;;
21591;SDS011;10958;50.892;3.992;2024-03-08T03:28:24;31.90;;;18.00;;
21591;SDS011;10958;50.892;3.992;2024-03-08T03:30:58;31.35;;;18.38;;
21591;SDS011;10958;50.892;3.992;2024-03-08T03:33:27;29.85;;;18.30;;
21591;SDS011;10958;50.892;3.992;2024-03-08T03:35:53;30.67;;;18.60;;
21591;SDS011;10958;50.892;3.992;2024-03-08T03:38:22;29.67;;;17.52;;
21591;SDS011;10958;50.892;3.992;2024-03-08T03:41:06;31.63;;;17.63;;
21591;SDS011;10958;50.892;3.992;2024-03-08T03:43:36;32.63;;;18.42;;
21591;SDS011;10958;50.892;3.992;2024-03-08T03:46:08;31.77;;;17.92;;
21591;SDS011;10958;50.892;3.992;2024-03-08T03:48:40;31.80;;;18.58;;
21591;SDS011;10958;50.892;3.992;2024-03-08T03:51:11;34.20;;;18.95;;
21591;SDS011;10958;50.892;3.992;2024-03-08T03:53:40;33.38;;;19.48;;
21591;SDS011;10958;50.892;3.992;2024-03-08T03:56:11;30.00;;;18.38;;
21591;SDS011;10958;50.892;3.992;2024-03-08T03:58:42;35.58;;;19.42;;
21591;SDS011;10958;50.892;3.992;2024-03-08T04:01:10;36.40;;;20.52;;
21591;SDS011;10958;50.892;3.992;2024-03-08T04:03:40;31.88;;;18.10;;
21591;SDS011;10958;50.892;3.992;2024-03-08T04:06:09;33.15;;;19.00;;
21591;SDS011;10958;50.892;3.992;2024-03-08T04:08:35;30.80;;;18.65;;
21591;SDS011;10958;50.892;3.992;2024-03-08T04:11:06;29.70;;;18.50;;
21591;SDS011;10958;50.892;3.992;2024-03-08T04:13:33;37.55;;;19.27;;
21591;SDS011;10958;50.892;3.992;2024-03-08T04:16:02;32.35;;;18.58;;
21591;SDS011;10958;50.892;3.992;2024-03-08T04:18:27;28.40;;;15.67;;
21591;SDS011;10958;50.892;3.992;2024-03-08T04:20:53;29.08;;;16.73;;
21591;SDS011;10958;50.892;3.992;2024-03-08T04:23:20;32.08;;;19.10;;
21591;SDS011;10958;50.892;3.992;2024-03-08T04:25:45;35.65;;;19.65;;
21591;SDS011;10958;50.892;3.992;2024-03-08T04:28:17;35.63;;;19.45;;
21591;SDS011;10958;50.892;3.992;2024-03-08T04:30:46;31.10;;;19.23;;
21591;SDS011;10958;50.892;3.992;2024-03-08T04:33:17;33.88;;;19.30;;
21591;SDS011;10958;50.892;3.992;2024-03-08T04:35:43;35.90;;;19.58;;
21591;SDS011;10958;50.892;3.992;2024-03-08T04:38:14;29.50;;;19.15;;
21591;SDS011;10958;50.892;3.992;2024-03-08T04:40:40;33.50;;;20.60;;
21591;SDS011;10958;50.892;3.992;2024-03-08T04:43:07;34.60;;;20.17;;
21591;SDS011;10958;50.892;3.992;2024-03-08T04:45:34;32.08;;;19.90;;
21591;SDS011;10958;50.892;3.992;2024-03-08T04:48:04;28.83;;;18.30;;
21591;SDS011;10958;50.892;3.992;2024-03-08T04:50:36;36.60;;;20.63;;
21591;SDS011;10958;50.892;3.992;2024-03-08T04:53:03;32.50;;;18.92;;
21591;SDS011;10958;50.892;3.992;2024-03-08T04:55:33;32.83;;;18.90;;
21591;SDS011;10958;50.892;3.992;2024-03-08T04:58:05;33.05;;;19.15;;
21591;SDS011;10958;50.892;3.992;2024-03-08T05:00:31;32.30;;;18.13;;
21591;SDS011;10958;50.892;3.992;2024-03-08T05:03:05;36.08;;;20.63;;
21591;SDS011;10958;50.892;3.992;2024-03-08T05:05:31;33.05;;;18.95;;
21591;SDS011;10958;50.892;3.992;2024-03-08T05:08:02;32.55;;;19.92;;
21591;SDS011;10958;50.892;3.992;2024-03-08T05:10:28;37.30;;;20.15;;
21591;SDS011;10958;50.892;3.992;2024-03-08T05:12:57;33.70;;;20.52;;
21591;SDS011;10958;50.892;3.992;2024-03-08T05:15:25;37.78;;;20.38;;
21591;SDS011;10958;50.892;3.992;2024-03-08T05:17:57;30.83;;;18.40;;
21591;SDS011;10958;50.892;3.992;2024-03-08T05:20:25;34.67;;;18.98;;
21591;SDS011;10958;50.892;3.992;2024-03-08T05:23:04;32.90;;;18.95;;
21591;SDS011;10958;50.892;3.992;2024-03-08T05:25:33;38.40;;;22.02;;
21591;SDS011;10958;50.892;3.992;2024-03-08T05:28:01;35.63;;;18.97;;
21591;SDS011;10958;50.892;3.992;2024-03-08T05:30:29;38.33;;;19.23;;
21591;SDS011;10958;50.892;3.992;2024-03-08T05:32:58;32.55;;;17.58;;
21591;SDS011;10958;50.892;3.992;2024-03-08T05:35:27;30.02;;;18.70;;
21591;SDS011;10958;50.892;3.992;2024-03-08T05:37:55;30.15;;;18.05;;
21591;SDS011;10958;50.892;3.992;2024-03-08T05:40:25;30.05;;;18.77;;
21591;SDS011;10958;50.892;3.992;2024-03-08T05:42:57;31.98;;;21.08;;
21591;SDS011;10958;50.892;3.992;2024-03-08T05:45:24;38.20;;;20.42;;
21591;SDS011;10958;50.892;3.992;2024-03-08T05:47:50;36.55;;;19.77;;
21591;SDS011;10958;50.892;3.992;2024-03-08T05:50:17;33.15;;;19.60;;
21591;SDS011;10958;50.892;3.992;2024-03-08T05:52:47;33.40;;;19.80;;
21591;SDS011;10958;50.892;3.992;2024-03-08T05:55:13;31.55;;;19.13;;
21591;SDS011;10958;50.892;3.992;2024-03-08T05:57:41;33.60;;;19.10;;
21591;SDS011;10958;50.892;3.992;2024-03-08T06:00:07;29.58;;;18.80;;
21591;SDS011;10958;50.892;3.992;2024-03-08T06:02:36;31.88;;;18.98;;
21591;SDS011;10958;50.892;3.992;2024-03-08T06:05:07;32.28;;;19.17;;
21591;SDS011;10958;50.892;3.992;2024-03-08T06:07:36;33.10;;;19.45;;
21591;SDS011;10958;50.892;3.992;2024-03-08T06:10:06;35.88;;;21.50;;
21591;SDS011;10958;50.892;3.992;2024-03-08T06:12:35;35.38;;;19.50;;
21591;SDS011;10958;50.892;3.992;2024-03-08T06:15:12;32.22;;;18.88;;
21591;SDS011;10958;50.892;3.992;2024-03-08T06:17:43;33.33;;;20.33;;
21591;SDS011;10958;50.892;3.992;2024-03-08T06:20:09;33.60;;;18.55;;
21591;SDS011;10958;50.892;3.992;2024-03-08T06:25:09;36.25;;;20.70;;
21591;SDS011;10958;50.892;3.992;2024-03-08T06:27:43;34.45;;;21.60;;
21591;SDS011;10958;50.892;3.992;2024-03-08T06:30:12;36.20;;;20.13;;
21591;SDS011;10958;50.892;3.992;2024-03-08T06:32:38;33.75;;;19.90;;
21591;SDS011;10958;50.892;3.992;2024-03-08T06:35:04;33.63;;;19.83;;
21591;SDS011;10958;50.892;3.992;2024-03-08T06:37:34;35.80;;;20.35;;
21591;SDS011;10958;50.892;3.992;2024-03-08T06:40:00;33.13;;;20.75;;
21591;SDS011;10958;50.892;3.992;2024-03-08T06:42:27;35.38;;;20.80;;
21591;SDS011;10958;50.892;3.992;2024-03-08T06:44:53;34.83;;;20.25;;
21591;SDS011;10958;50.892;3.992;2024-03-08T06:47:21;32.75;;;19.45;;
21591;SDS011;10958;50.892;3.992;2024-03-08T06:49:50;33.58;;;18.73;;
21591;SDS011;10958;50.892;3.992;2024-03-08T06:52:19;33.97;;;19.80;;
21591;SDS011;10958;50.892;3.992;2024-03-08T06:54:45;35.22;;;19.60;;
21591;SDS011;10958;50.892;3.992;2024-03-08T06:57:10;33.63;;;20.83;;
21591;SDS011;10958;50.892;3.992;2024-03-08T06:59:36;35.88;;;20.23;;
21591;SDS011;10958;50.892;3.992;2024-03-08T07:02:05;37.92;;;20.17;;
21591;SDS011;10958;50.892;3.992;2024-03-08T07:04:34;34.03;;;20.17;;
21591;SDS011;10958;50.892;3.992;2024-03-08T07:07:06;35.03;;;19.77;;
21591;SDS011;10958;50.892;3.992;2024-03-08T07:09:37;32.47;;;19.83;;
21591;SDS011;10958;50.892;3.992;2024-03-08T07:12:03;34.30;;;19.83;;
21591;SDS011;10958;50.892;3.992;2024-03-08T07:14:29;36.20;;;20.42;;
21591;SDS011;10958;50.892;3.992;2024-03-08T07:17:06;31.58;;;19.17;;
21591;SDS011;10958;50.892;3.992;2024-03-08T07:19:35;29.48;;;17.52;;
21591;SDS011;10958;50.892;3.992;2024-03-08T07:22:04;27.58;;;17.45;;
21591;SDS011;10958;50.892;3.992;2024-03-08T07:24:36;31.30;;;17.92;;
21591;SDS011;10958;50.892;3.992;2024-03-08T07:27:14;30.50;;;17.13;;
21591;SDS011;10958;50.892;3.992;2024-03-08T07:29:51;28.00;;;17.73;;
21591;SDS011;10958;50.892;3.992;2024-03-08T07:32:21;26.35;;;16.85;;
21591;SDS011;10958;50.892;3.992;2024-03-08T07:34:51;28.60;;;17.45;;
21591;SDS011;10958;50.892;3.992;2024-03-08T07:37:21;33.90;;;17.60;;
21591;SDS011;10958;50.892;3.992;2024-03-08T07:39:50;34.55;;;18.45;;
21591;SDS011;10958;50.892;3.992;2024-03-08T07:44:49;36.17;;;18.77;;
21591;SDS011;10958;50.892;3.992;2024-03-08T07:47:21;29.80;;;17.40;;
21591;SDS011;10958;50.892;3.992;2024-03-08T07:49:47;32.38;;;17.30;;
21591;SDS011;10958;50.892;3.992;2024-03-08T07:52:21;30.65;;;17.58;;
21591;SDS011;10958;50.892;3.992;2024-03-08T07:54:50;31.15;;;17.73;;
21591;SDS011;10958;50.892;3.992;2024-03-08T07:57:19;25.75;;;16.92;;
21591;SDS011;10958;50.892;3.992;2024-03-08T07:59:46;27.27;;;16.77;;
21591;SDS011;10958;50.892;3.992;2024-03-08T08:02:11;26.10;;;16.23;;
21591;SDS011;10958;50.892;3.992;2024-03-08T08:04:46;27.48;;;17.67;;
21591;SDS011;10958;50.892;3.992;2024-03-08T08:07:12;27.35;;;17.10;;
21591;SDS011;10958;50.892;3.992;2024-03-08T08:09:45;25.05;;;16.63;;
21591;SDS011;10958;50.892;3.992;2024-03-08T08:12:11;25.92;;;16.23;;
21591;SDS011;10958;50.892;3.992;2024-03-08T08:14:41;26.67;;;15.48;;
21591;SDS011;10958;50.892;3.992;2024-03-08T08:17:07;30.70;;;16.45;;
21591;SDS011;10958;50.892;3.992;2024-03-08T08:19:41;27.15;;;16.55;;
21591;SDS011;10958;50.892;3.992;2024-03-08T08:22:30;26.95;;;15.82;;
21591;SDS011;10958;50.892;3.992;2024-03-08T08:24:57;30.88;;;17.23;;
21591;SDS011;10958;50.892;3.992;2024-03-08T08:27:23;26.17;;;16.08;;
21591;SDS011;10958;50.892;3.992;2024-03-08T08:29:57;27.10;;;15.73;;
21591;SDS011;10958;50.892;3.992;2024-03-08T08:32:34;24.85;;;15.70;;
21591;SDS011;10958;50.892;3.992;2024-03-08T08:35:09;24.38;;;15.38;;
21591;SDS011;10958;50.892;3.992;2024-03-08T08:37:40;25.42;;;15.35;;
21591;SDS011;10958;50.892;3.992;2024-03-08T08:40:12;29.17;;;15.40;;
21591;SDS011;10958;50.892;3.992;2024-03-08T08:42:56;29.25;;;16.25;;
21591;SDS011;10958;50.892;3.992;2024-03-08T08:45:25;27.55;;;15.57;;
21591;SDS011;10958;50.892;3.992;2024-03-08T08:48:03;27.23;;;16.40;;
21591;SDS011;10958;50.892;3.992;2024-03-08T08:50:37;25.77;;;15.68;;
21591;SDS011;10958;50.892;3.992;2024-03-08T08:53:06;24.67;;;15.90;;
21591;SDS011;10958;50.892;3.992;2024-03-08T08:55:40;28.88;;;15.88;;
21591;SDS011;10958;50.892;3.992;2024-03-08T08:58:06;25.80;;;16.17;;
21591;SDS011;10958;50.892;3.992;2024-03-08T09:00:34;20.08;;;11.68;;
21591;SDS011;10958;50.892;3.992;2024-03-08T09:03:06;23.17;;;14.95;;
21591;SDS011;10958;50.892;3.992;2024-03-08T09:05:32;30.73;;;16.50;;
21591;SDS011;10958;50.892;3.992;2024-03-08T09:08:00;26.80;;;16.07;;
21591;SDS011;10958;50.892;3.992;2024-03-08T09:10:32;24.85;;;15.15;;
21591;SDS011;10958;50.892;3.992;2024-03-08T09:12:59;25.77;;;15.40;;
21591;SDS011;10958;50.892;3.992;2024-03-08T09:15:31;24.05;;;14.70;;
21591;SDS011;10958;50.892;3.992;2024-03-08T09:18:05;22.40;;;13.85;;
21591;SDS011;10958;50.892;3.992;2024-03-08T09:20:31;28.50;;;14.93;;
21591;SDS011;10958;50.892;3.992;2024-03-08T09:23:02;25.85;;;14.43;;
21591;SDS011;10958;50.892;3.992;2024-03-08T09:25:34;23.38;;;14.65;;
21591;SDS011;10958;50.892;3.992;2024-03-08T09:28:00;25.92;;;15.63;;
21591;SDS011;10958;50.892;3.992;2024-03-08T09:30:30;22.05;;;14.95;;
21591;SDS011;10958;50.892;3.992;2024-03-08T09:33:00;21.98;;;14.27;;
21591;SDS011;10958;50.892;3.992;2024-03-08T09:35:33;21.90;;;14.80;;
21591;SDS011;10958;50.892;3.992;2024-03-08T09:37:59;23.02;;;15.00;;
21591;SDS011;10958;50.892;3.992;2024-03-08T09:40:25;22.88;;;14.52;;
21591;SDS011;10958;50.892;3.992;2024-03-08T09:43:07;21.88;;;14.40;;
21591;SDS011;10958;50.892;3.992;2024-03-08T09:45:48;24.05;;;13.68;;
21591;SDS011;10958;50.892;3.992;2024-03-08T09:48:17;20.83;;;14.20;;
21591;SDS011;10958;50.892;3.992;2024-03-08T09:50:56;22.23;;;14.43;;
21591;SDS011;10958;50.892;3.992;2024-03-08T09:53:22;27.67;;;14.33;;
21591;SDS011;10958;50.892;3.992;2024-03-08T09:55:56;14.77;;;9.03;;
21591;SDS011;10958;50.892;3.992;2024-03-08T09:58:32;19.63;;;13.33;;
21591;SDS011;10958;50.892;3.992;2024-03-08T10:01:15;22.63;;;14.20;;
21591;SDS011;10958;50.892;3.992;2024-03-08T10:03:48;21.17;;;12.95;;
21591;SDS011;10958;50.892;3.992;2024-03-08T10:06:23;23.08;;;14.27;;
21591;SDS011;10958;50.892;3.992;2024-03-08T10:08:50;21.58;;;13.25;;
21591;SDS011;10958;50.892;3.992;2024-03-08T10:11:19;20.48;;;13.48;;
21591;SDS011;10958;50.892;3.992;2024-03-08T10:13:45;22.77;;;13.50;;
21591;SDS011;10958;50.892;3.992;2024-03-08T10:16:33;20.67;;;13.52;;
21591;SDS011;10958;50.892;3.992;2024-03-08T10:19:05;23.02;;;14.00;;
21591;SDS011;10958;50.892;3.992;2024-03-08T10:21:47;22.33;;;14.60;;
21591;SDS011;10958;50.892;3.992;2024-03-08T10:24:15;22.17;;;13.40;;
21591;SDS011;10958;50.892;3.992;2024-03-08T10:26:41;21.02;;;13.73;;
21591;SDS011;10958;50.892;3.992;2024-03-08T10:29:27;18.23;;;12.82;;
21591;SDS011;10958;50.892;3.992;2024-03-08T10:35:03;24.13;;;14.80;;
21591;SDS011;10958;50.892;3.992;2024-03-08T10:37:29;20.65;;;13.77;;
21591;SDS011;10958;50.892;3.992;2024-03-08T10:40:02;21.58;;;13.70;;
21591;SDS011;10958;50.892;3.992;2024-03-08T10:42:41;21.00;;;13.43;;
21591;SDS011;10958;50.892;3.992;2024-03-08T10:45:37;20.70;;;13.82;;
21591;SDS011;10958;50.892;3.992;2024-03-08T10:51:06;22.90;;;13.63;;
21591;SDS011;10958;50.892;3.992;2024-03-08T10:53:38;20.75;;;13.35;;
21591;SDS011;10958;50.892;3.992;2024-03-08T10:56:09;22.48;;;13.82;;
21591;SDS011;10958;50.892;3.992;2024-03-08T10:58:43;22.05;;;13.73;;
21591;SDS011;10958;50.892;3.992;2024-03-08T11:06:22;21.75;;;13.23;;
21591;SDS011;10958;50.892;3.992;2024-03-08T11:08:50;23.27;;;14.30;;
21591;SDS011;10958;50.892;3.992;2024-03-08T11:11:29;18.90;;;13.80;;
21591;SDS011;10958;50.892;3.992;2024-03-08T11:14:00;23.00;;;13.27;;
21591;SDS011;10958;50.892;3.992;2024-03-08T11:21:30;21.00;;;13.82;;
21591;SDS011;10958;50.892;3.992;2024-03-08T11:23:59;21.48;;;13.52;;
21591;SDS011;10958;50.892;3.992;2024-03-08T11:26:33;21.17;;;14.23;;
21591;SDS011;10958;50.892;3.992;2024-03-08T11:31:54;20.95;;;13.35;;
21591;SDS011;10958;50.892;3.992;2024-03-08T11:34:42;22.85;;;13.57;;
21591;SDS011;10958;50.892;3.992;2024-03-08T11:37:16;24.48;;;14.35;;
21591;SDS011;10958;50.892;3.992;2024-03-08T11:39:46;22.30;;;13.98;;
21591;SDS011;10958;50.892;3.992;2024-03-08T11:42:23;19.15;;;13.35;;
21591;SDS011;10958;50.892;3.992;2024-03-08T11:44:51;22.50;;;13.00;;
21591;SDS011;10958;50.892;3.992;2024-03-08T11:47:18;21.67;;;13.07;;
21591;SDS011;10958;50.892;3.992;2024-03-08T11:49:44;20.15;;;13.32;;
21591;SDS011;10958;50.892;3.992;2024-03-08T11:54:40;19.67;;;12.88;;
21591;SDS011;10958;50.892;3.992;2024-03-08T11:57:10;20.77;;;13.35;;
21591;SDS011;10958;50.892;3.992;2024-03-08T11:59:37;27.65;;;14.02;;
21591;SDS011;10958;50.892;3.992;2024-03-08T12:02:07;23.55;;;14.00;;
21591;SDS011;10958;50.892;3.992;2024-03-08T12:04:36;21.88;;;13.80;;
21591;SDS011;10958;50.892;3.992;2024-03-08T12:07:04;18.70;;;13.05;;
21591;SDS011;10958;50.892;3.992;2024-03-08T12:09:34;20.02;;;13.98;;
21591;SDS011;10958;50.892;3.992;2024-03-08T12:12:01;24.05;;;13.57;;
21591;SDS011;10958;50.892;3.992;2024-03-08T12:14:30;22.58;;;13.20;;
21591;SDS011;10958;50.892;3.992;2024-03-08T12:16:57;22.35;;;12.98;;
21591;SDS011;10958;50.892;3.992;2024-03-08T12:19:23;19.92;;;12.73;;
21591;SDS011;10958;50.892;3.992;2024-03-08T12:21:49;19.92;;;13.32;;
21591;SDS011;10958;50.892;3.992;2024-03-08T12:24:15;20.45;;;13.82;;
21591;SDS011;10958;50.892;3.992;2024-03-08T12:26:44;19.20;;;13.05;;
21591;SDS011;10958;50.892;3.992;2024-03-08T12:31:53;21.50;;;13.63;;
21591;SDS011;10958;50.892;3.992;2024-03-08T12:34:23;25.15;;;13.95;;
21591;SDS011;10958;50.892;3.992;2024-03-08T12:36:49;20.15;;;13.93;;
21591;SDS011;10958;50.892;3.992;2024-03-08T12:39:22;20.95;;;13.57;;
21591;SDS011;10958;50.892;3.992;2024-03-08T12:41:51;23.60;;;13.48;;
21591;SDS011;10958;50.892;3.992;2024-03-08T12:44:22;21.88;;;13.82;;
21591;SDS011;10958;50.892;3.992;2024-03-08T12:46:48;24.17;;;14.18;;
21591;SDS011;10958;50.892;3.992;2024-03-08T12:49:18;21.30;;;13.07;;
21591;SDS011;10958;50.892;3.992;2024-03-08T12:51:47;18.98;;;11.23;;
21591;SDS011;10958;50.892;3.992;2024-03-08T12:54:17;20.08;;;13.15;;
21591;SDS011;10958;50.892;3.992;2024-03-08T12:56:43;20.00;;;13.05;;
21591;SDS011;10958;50.892;3.992;2024-03-08T12:59:17;19.77;;;13.10;;
21591;SDS011;10958;50.892;3.992;2024-03-08T13:01:43;17.48;;;10.23;;
21591;SDS011;10958;50.892;3.992;2024-03-08T13:04:09;22.70;;;13.50;;
21591;SDS011;10958;50.892;3.992;2024-03-08T13:06:41;32.53;;;16.30;;
21591;SDS011;10958;50.892;3.992;2024-03-08T13:09:13;31.95;;;16.95;;
21591;SDS011;10958;50.892;3.992;2024-03-08T13:11:39;24.45;;;14.75;;
21591;SDS011;10958;50.892;3.992;2024-03-08T13:14:05;21.58;;;15.18;;
21591;SDS011;10958;50.892;3.992;2024-03-08T13:16:32;19.55;;;13.48;;
21591;SDS011;10958;50.892;3.992;2024-03-08T13:19:02;26.83;;;14.70;;
21591;SDS011;10958;50.892;3.992;2024-03-08T13:21:31;22.38;;;13.48;;
21591;SDS011;10958;50.892;3.992;2024-03-08T13:26:28;27.45;;;13.25;;
21591;SDS011;10958;50.892;3.992;2024-03-08T13:29:05;27.63;;;12.95;;
21591;SDS011;10958;50.892;3.992;2024-03-08T13:31:31;19.35;;;12.65;;
21591;SDS011;10958;50.892;3.992;2024-03-08T13:34:03;21.15;;;12.65;;
21591;SDS011;10958;50.892;3.992;2024-03-08T13:36:31;19.67;;;12.60;;
21591;SDS011;10958;50.892;3.992;2024-03-08T13:39:04;18.58;;;12.25;;
21591;SDS011;10958;50.892;3.992;2024-03-08T13:41:40;19.20;;;12.55;;
21591;SDS011;10958;50.892;3.992;2024-03-08T13:44:07;21.90;;;12.13;;
21591;SDS011;10958;50.892;3.992;2024-03-08T13:46:32;19.38;;;11.35;;
21591;SDS011;10958;50.892;3.992;2024-03-08T13:49:03;19.02;;;11.75;;
21591;SDS011;10958;50.892;3.992;2024-03-08T13:51:33;17.52;;;11.27;;
21591;SDS011;10958;50.892;3.992;2024-03-08T13:53:59;17.40;;;11.40;;
21591;SDS011;10958;50.892;3.992;2024-03-08T13:56:31;17.67;;;10.85;;
21591;SDS011;10958;50.892;3.992;2024-03-08T13:58:57;17.05;;;11.27;;
21591;SDS011;10958;50.892;3.992;2024-03-08T14:01:25;19.65;;;11.65;;
21591;SDS011;10958;50.892;3.992;2024-03-08T14:03:51;17.73;;;11.52;;
21591;SDS011;10958;50.892;3.992;2024-03-08T14:06:17;18.05;;;11.35;;
21591;SDS011;10958;50.892;3.992;2024-03-08T14:08:45;17.50;;;11.68;;
21591;SDS011;10958;50.892;3.992;2024-03-08T14:11:11;18.85;;;11.60;;
21591;SDS011;10958;50.892;3.992;2024-03-08T14:13:42;20.35;;;12.18;;
21591;SDS011;10958;50.892;3.992;2024-03-08T14:16:12;22.00;;;11.65;;
21591;SDS011;10958;50.892;3.992;2024-03-08T14:18:40;19.52;;;11.43;;
21591;SDS011;10958;50.892;3.992;2024-03-08T14:21:07;17.55;;;11.45;;
21591;SDS011;10958;50.892;3.992;2024-03-08T14:23:35;20.35;;;11.73;;
21591;SDS011;10958;50.892;3.992;2024-03-08T14:26:03;18.03;;;11.33;;
21591;SDS011;10958;50.892;3.992;2024-03-08T14:28:32;21.27;;;11.85;;
21591;SDS011;10958;50.892;3.992;2024-03-08T14:30:57;25.60;;;13.95;;
21591;SDS011;10958;50.892;3.992;2024-03-08T14:33:23;24.55;;;13.18;;
21591;SDS011;10958;50.892;3.992;2024-03-08T14:35:50;19.60;;;10.38;;
21591;SDS011;10958;50.892;3.992;2024-03-08T14:38:16;18.05;;;11.55;;
21591;SDS011;10958;50.892;3.992;2024-03-08T14:40:43;17.67;;;11.73;;
21591;SDS011;10958;50.892;3.992;2024-03-08T14:43:12;17.98;;;11.82;;
21591;SDS011;10958;50.892;3.992;2024-03-08T14:45:41;17.02;;;11.48;;
21591;SDS011;10958;50.892;3.992;2024-03-08T14:48:07;20.33;;;11.40;;
21591;SDS011;10958;50.892;3.992;2024-03-08T14:50:36;19.05;;;11.48;;
21591;SDS011;10958;50.892;3.992;2024-03-08T14:53:02;19.20;;;11.82;;
21591;SDS011;10958;50.892;3.992;2024-03-08T14:55:31;18.15;;;11.27;;
21591;SDS011;10958;50.892;3.992;2024-03-08T14:57:59;17.90;;;11.77;;
21591;SDS011;10958;50.892;3.992;2024-03-08T15:00:25;18.27;;;11.32;;
21591;SDS011;10958;50.892;3.992;2024-03-08T15:03:00;18.67;;;10.40;;
21591;SDS011;10958;50.892;3.992;2024-03-08T15:05:31;16.90;;;11.25;;
21591;SDS011;10958;50.892;3.992;2024-03-08T15:08:01;18.00;;;10.60;;
21591;SDS011;10958;50.892;3.992;2024-03-08T15:10:27;16.88;;;11.18;;
21591;SDS011;10958;50.892;3.992;2024-03-08T15:12:55;20.55;;;11.65;;
21591;SDS011;10958;50.892;3.992;2024-03-08T15:15:24;19.17;;;11.13;;
21591;SDS011;10958;50.892;3.992;2024-03-08T15:17:53;17.02;;;11.30;;